Terminal Aerodrome Forecast
Issued by NWS Twin Cities, MN

Home | Current Version | Previous Version | Graphics & Text | Print | Product List | Glossary On
Versions: 1 2 3 4 5 6 7 8 9 10 11 12
000
FTUS43 KMPX 172320
TAFSTC
TAF
KSTC 172320Z 1800/1824 VRB03KT P6SM FEW250
     FM181000 04006KT P6SM SCT250
     FM181500 09009KT P6SM BKN200
     FM181900 12011G18KT P6SM OVC120=

USA.gov is the U.S. government's official web portal to all federal, state and local government web resources and services.